Time;durP1;ratioP1;P1;durP2;ratioP2;P2;SDS_P1;SDS_P2;PMS_P1;PMS_P2;Temp;Humidity;BMP_temperature;BMP_pressure;BME280_temperature;BME280_humidity;BME280_pressure;Samples;Min_cycle;Max_cycle;Signal;HPM_P1;HPM_P2
2022/10/03 00:01:24;;;;;;;2.42;0.90;;;;;;;12.25;100.00;99714.00;4433546;32;33428;-80
2022/10/03 00:04:27;;;;;;;2.03;1.02;;;;;;;12.08;100.00;99714.78;4431333;32;35184;-78
2022/10/03 00:07:41;;;;;;;4.00;1.15;;;;;;;11.97;100.00;99714.25;4429112;32;33843;-78
2022/10/03 00:10:49;;;;;;;2.20;1.03;;;;;;;12.24;100.00;99715.12;4432600;32;34175;-80
2022/10/03 00:13:53;;;;;;;2.70;1.10;;;;;;;12.04;100.00;99713.78;4433004;32;34622;-78
2022/10/03 00:17:20;;;;;;;2.45;1.15;;;;;;;12.09;100.00;99724.63;4432722;32;34081;-77
2022/10/03 00:20:31;;;;;;;2.37;1.10;;;;;;;12.11;100.00;99725.94;4386741;32;34738;-80
2022/10/03 00:23:53;;;;;;;2.67;1.10;;;;;;;12.12;100.00;99735.81;4434722;32;34357;-79
2022/10/03 00:26:48;;;;;;;2.65;0.90;;;;;;;12.17;100.00;99742.25;4435747;32;33772;-80
2022/10/03 00:29:37;;;;;;;4.37;1.35;;;;;;;12.42;100.00;99725.03;4435343;32;34195;-80
2022/10/03 00:33:05;;;;;;;3.25;1.20;;;;;;;12.30;100.00;99727.59;4434601;32;34663;-79
2022/10/03 00:36:07;;;;;;;6.35;2.75;;;;;;;12.10;100.00;99740.78;4418287;32;33460;-79
2022/10/03 00:39:06;;;;;;;6.03;2.42;;;;;;;12.02;100.00;99730.59;4432168;32;35249;-80
2022/10/03 00:41:55;;;;;;;5.10;1.60;;;;;;;12.14;100.00;99729.97;4432857;32;34278;-80
2022/10/03 00:45:09;;;;;;;4.55;1.55;;;;;;;12.83;100.00;99732.00;4432718;32;34170;-79
2022/10/03 00:48:14;;;;;;;3.60;1.45;;;;;;;12.54;100.00;99735.38;4432967;32;33212;-80
2022/10/03 00:51:38;;;;;;;4.65;1.98;;;;;;;12.38;100.00;99735.06;4434202;32;33801;-80
2022/10/03 00:54:36;;;;;;;5.35;2.30;;;;;;;12.38;100.00;99737.81;4423207;32;34154;-80
2022/10/03 00:57:49;;;;;;;7.05;3.55;;;;;;;11.84;100.00;99742.59;4434078;32;33772;-80
2022/10/03 01:00:37;;;;;;;5.15;2.03;;;;;;;12.18;100.00;99738.38;4433024;32;33341;-80
2022/10/03 01:03:27;;;;;;;7.30;3.60;;;;;;;12.60;100.00;99734.09;4421990;32;34759;-80
2022/10/03 01:06:25;;;;;;;3.78;1.33;;;;;;;12.59;100.00;99724.25;4433380;32;36553;-82
2022/10/03 01:09:26;;;;;;;2.50;1.05;;;;;;;12.15;100.00;99720.59;4434349;32;33917;-80
2022/10/03 01:12:36;;;;;;;5.53;1.57;;;;;;;12.07;100.00;99711.22;4412643;32;33078;-81
2022/10/03 01:15:31;;;;;;;3.10;1.45;;;;;;;11.70;100.00;99724.31;4432989;32;33728;-81
2022/10/03 01:18:27;;;;;;;4.20;1.80;;;;;;;11.99;100.00;99723.00;4434318;32;34075;-80
2022/10/03 01:21:25;;;;;;;6.28;2.25;;;;;;;12.03;100.00;99728.66;4433835;32;34068;-81
2022/10/03 01:24:25;;;;;;;3.53;1.58;;;;;;;12.04;100.00;99739.31;4436007;32;33494;-80
2022/10/03 01:27:14;;;;;;;6.60;2.45;;;;;;;12.23;100.00;99740.97;4435061;32;33849;-80
2022/10/03 01:30:22;;;;;;;11.63;5.37;;;;;;;12.23;100.00;99741.78;4432085;32;34173;-80
2022/10/03 01:33:26;;;;;;;6.40;2.50;;;;;;;12.40;100.00;99752.00;4435036;32;33832;-82
2022/10/03 01:36:25;;;;;;;11.12;5.50;;;;;;;12.02;100.00;99760.78;4433179;32;34291;-80
2022/10/03 01:39:55;;;;;;;4.28;2.45;;;;;;;12.42;100.00;99755.25;4434698;32;33858;-81
2022/10/03 01:43:10;;;;;;;17.55;10.98;;;;;;;11.85;100.00;99757.94;4432277;32;33970;-80
2022/10/03 01:46:16;;;;;;;5.40;2.42;;;;;;;11.72;100.00;99767.88;4432586;32;33739;-79
2022/10/03 01:49:24;;;;;;;4.55;2.25;;;;;;;12.52;100.00;99773.37;4433210;32;33424;-80
2022/10/03 01:52:22;;;;;;;6.72;3.45;;;;;;;12.01;100.00;99764.69;4421037;32;33797;-80
2022/10/03 01:55:25;;;;;;;12.17;6.30;;;;;;;12.40;100.00;99764.94;4432433;32;34032;-79
2022/10/03 01:58:50;;;;;;;8.32;4.65;;;;;;;12.16;100.00;99771.66;4435089;32;33355;-79
2022/10/03 02:01:50;;;;;;;5.13;2.87;;;;;;;12.10;100.00;99773.75;4434667;32;32865;-80
2022/10/03 02:05:02;;;;;;;6.03;1.85;;;;;;;12.39;100.00;99769.62;4434364;32;34651;-79
2022/10/03 02:08:04;;;;;;;4.47;2.28;;;;;;;12.23;100.00;99765.72;4434122;32;34952;-80
2022/10/03 02:11:07;;;;;;;3.78;1.85;;;;;;;12.26;100.00;99774.13;4435190;32;33865;-81
2022/10/03 02:14:11;;;;;;;3.72;1.83;;;;;;;11.49;100.00;99770.66;4424451;32;33204;-81
2022/10/03 02:17:02;;;;;;;3.87;1.70;;;;;;;11.64;100.00;99783.22;4434374;32;33765;-80
2022/10/03 02:19:56;;;;;;;4.30;2.00;;;;;;;11.21;100.00;99775.50;4422667;32;35230;-80
2022/10/03 02:22:50;;;;;;;4.20;2.30;;;;;;;11.58;100.00;99778.94;4434057;32;34038;-81
2022/10/03 02:26:02;;;;;;;4.90;2.20;;;;;;;11.46;100.00;99782.28;4435390;32;33395;-79
2022/10/03 02:29:04;;;;;;;4.20;1.80;;;;;;;11.67;100.00;99782.56;4433611;32;33495;-80
2022/10/03 02:31:55;;;;;;;5.72;2.10;;;;;;;11.36;100.00;99787.22;4423942;32;34026;-80
2022/10/03 02:35:27;;;;;;;4.55;1.98;;;;;;;10.96;100.00;99789.84;4435362;32;33807;-79
2022/10/03 02:38:16;;;;;;;4.65;1.92;;;;;;;10.70;100.00;99795.87;4433784;32;33254;-79
2022/10/03 02:41:31;;;;;;;7.25;2.10;;;;;;;11.49;100.00;99794.56;4433449;32;33863;-80
2022/10/03 02:44:51;;;;;;;4.90;2.45;;;;;;;11.04;100.00;99797.28;4434084;32;35223;-79
2022/10/03 02:47:58;;;;;;;6.10;2.00;;;;;;;10.90;100.00;99793.78;4435264;32;33893;-79
2022/10/03 02:51:10;;;;;;;4.60;1.90;;;;;;;11.30;100.00;99796.69;4434875;32;34344;-80
2022/10/03 02:54:19;;;;;;;4.03;1.93;;;;;;;10.92;100.00;99794.28;4434633;32;33929;-79
2022/10/03 02:57:36;;;;;;;5.12;2.20;;;;;;;11.19;100.00;99794.19;4433967;32;33787;-80
2022/10/03 03:01:00;;;;;;;6.50;2.47;;;;;;;11.15;100.00;99793.19;4435450;32;34680;-80
2022/10/03 03:04:17;;;;;;;4.78;2.03;;;;;;;11.30;100.00;99796.69;4423015;32;33819;-80
2022/10/03 03:07:38;;;;;;;3.40;2.00;;;;;;;11.12;100.00;99787.53;4435449;32;32742;-79
2022/10/03 03:10:59;;;;;;;3.83;2.03;;;;;;;11.54;100.00;99790.88;4434464;32;33361;-80
2022/10/03 03:14:17;;;;;;;5.15;2.00;;;;;;;12.05;100.00;99789.56;4434567;32;33667;-80
2022/10/03 03:17:22;;;;;;;5.53;2.03;;;;;;;11.79;100.00;99795.72;4432120;32;34268;-79
2022/10/03 03:20:45;;;;;;;6.65;2.25;;;;;;;11.48;100.00;99803.94;4433560;32;34720;-79
2022/10/03 03:23:40;;;;;;;5.72;2.33;;;;;;;11.09;100.00;99808.16;4434619;32;34702;-80
2022/10/03 03:26:51;;;;;;;4.33;1.97;;;;;;;11.46;100.00;99803.41;4423563;32;34000;-80
2022/10/03 03:29:47;;;;;;;5.28;2.22;;;;;;;11.87;100.00;99805.97;4433105;32;33052;-80
2022/10/03 03:32:48;;;;;;;5.45;2.60;;;;;;;11.63;100.00;99798.03;4432863;32;33825;-80
2022/10/03 03:35:51;;;;;;;5.22;2.45;;;;;;;11.57;100.00;99804.78;4433655;32;33823;-80
2022/10/03 03:38:49;;;;;;;5.03;2.37;;;;;;;11.35;100.00;99800.09;4433075;32;34278;-80
2022/10/03 03:41:45;;;;;;;5.97;2.20;;;;;;;11.19;100.00;99805.19;4432767;32;33295;-79
2022/10/03 03:44:57;;;;;;;4.20;2.30;;;;;;;11.44;100.00;99809.25;4433734;32;34680;-80
2022/10/03 03:48:11;;;;;;;6.60;2.50;;;;;;;11.82;100.00;99811.56;4434905;32;34112;-79
2022/10/03 03:51:33;;;;;;;5.95;2.70;;;;;;;11.11;100.00;99811.41;4433659;32;32818;-80
2022/10/03 03:54:31;;;;;;;5.78;2.40;;;;;;;11.51;100.00;99817.03;4434123;32;34512;-80
2022/10/03 03:57:32;;;;;;;7.00;2.30;;;;;;;11.98;100.00;99812.00;4434757;32;33976;-80
2022/10/03 04:00:21;;;;;;;5.80;2.40;;;;;;;11.54;100.00;99819.13;4433260;32;34185;-80
2022/10/03 04:03:29;;;;;;;5.93;2.87;;;;;;;11.27;100.00;99814.59;4432639;32;33805;-80
2022/10/03 04:06:34;;;;;;;5.37;2.55;;;;;;;11.57;100.00;99820.44;4423041;32;33326;-80
2022/10/03 04:09:27;;;;;;;6.28;2.50;;;;;;;10.96;100.00;99811.75;4435518;32;33693;-81
2022/10/03 04:12:31;;;;;;;6.20;2.50;;;;;;;11.14;100.00;99813.53;4437662;32;34069;-80
2022/10/03 04:15:26;;;;;;;7.70;2.70;;;;;;;10.49;100.00;99816.63;4435661;32;34654;-79
2022/10/03 04:21:39;;;;;;;5.18;2.50;;;;;;;11.04;100.00;99813.75;4425485;32;33652;-80
2022/10/03 04:24:45;;;;;;;6.53;2.40;;;;;;;11.31;100.00;99814.78;4435461;32;34831;-80
2022/10/03 04:28:02;;;;;;;4.77;2.20;;;;;;;11.41;100.00;99815.34;4436072;32;34799;-80
2022/10/03 04:30:52;;;;;;;6.03;2.55;;;;;;;11.49;100.00;99830.22;4435666;32;33533;-79
2022/10/03 04:33:58;;;;;;;4.62;2.60;;;;;;;10.79;100.00;99845.31;4424405;32;34607;-80
2022/10/03 04:36:59;;;;;;;6.68;2.42;;;;;;;11.41;100.00;99847.44;4434784;32;33695;-80
2022/10/03 04:39:58;;;;;;;5.70;2.78;;;;;;;11.45;100.00;99845.72;4435350;32;32436;-80
2022/10/03 04:43:17;;;;;;;4.70;2.60;;;;;;;10.75;100.00;99855.25;4435857;32;32190;-80
2022/10/03 04:46:24;;;;;;;6.47;2.87;;;;;;;10.50;100.00;99853.84;4436077;32;33822;-79
2022/10/03 04:49:28;;;;;;;6.43;3.03;;;;;;;10.89;100.00;99849.75;4432997;32;34122;-80
2022/10/03 04:52:21;;;;;;;10.23;3.12;;;;;;;11.02;100.00;99857.13;4429795;32;229407;-80
2022/10/03 04:55:20;;;;;;;9.57;3.20;;;;;;;10.33;100.00;99860.75;4435551;32;33008;-80
2022/10/03 04:58:16;;;;;;;8.25;3.20;;;;;;;10.39;100.00;99863.37;4422930;32;34712;-79
2022/10/03 05:01:20;;;;;;;8.83;3.60;;;;;;;10.60;100.00;99863.78;4435384;32;33101;-80
2022/10/03 05:04:51;;;;;;;8.13;3.00;;;;;;;10.55;100.00;99861.97;4433076;32;33755;-80
2022/10/03 05:07:54;;;;;;;6.22;3.10;;;;;;;10.61;100.00;99866.22;4427048;32;33363;-80
2022/10/03 05:10:50;;;;;;;6.62;3.30;;;;;;;10.22;100.00;99881.22;4436181;32;33530;-80
2022/10/03 05:13:50;;;;;;;6.13;3.37;;;;;;;10.23;100.00;99877.34;4436162;32;34072;-80
2022/10/03 05:16:47;;;;;;;7.30;3.37;;;;;;;10.15;100.00;99878.03;4420076;32;33428;-80
2022/10/03 05:19:58;;;;;;;6.68;3.30;;;;;;;10.27;100.00;99877.56;4434770;32;34132;-80
2022/10/03 05:23:13;;;;;;;6.05;2.95;;;;;;;10.29;100.00;99875.34;4436360;32;34668;-80
2022/10/03 05:26:13;;;;;;;6.72;3.00;;;;;;;10.46;100.00;99874.75;4434995;32;33058;-80
2022/10/03 05:29:32;;;;;;;6.73;2.70;;;;;;;10.70;100.00;99864.41;4435543;32;33853;-80
2022/10/03 05:32:40;;;;;;;7.03;3.03;;;;;;;10.49;100.00;99868.66;4436404;32;32382;-79
2022/10/03 05:35:35;;;;;;;7.37;2.83;;;;;;;10.44;100.00;99866.81;4434105;32;33418;-79
2022/10/03 05:38:45;;;;;;;5.82;3.10;;;;;;;10.39;100.00;99857.91;4432578;32;34187;-79
2022/10/03 05:41:35;;;;;;;6.10;2.97;;;;;;;10.37;100.00;99868.38;4433511;32;33624;-80
2022/10/03 05:44:31;;;;;;;7.25;2.85;;;;;;;10.61;100.00;99860.72;4433486;32;32755;-81
2022/10/03 05:47:47;;;;;;;5.10;2.62;;;;;;;10.53;100.00;99858.72;4421757;32;33335;-80
2022/10/03 05:51:20;;;;;;;5.82;2.47;;;;;;;10.34;100.00;99875.25;4434687;32;34073;-80
2022/10/03 05:54:32;;;;;;;4.47;2.55;;;;;;;10.66;100.00;99879.00;4435731;32;32578;-80
2022/10/03 05:57:41;;;;;;;6.65;2.20;;;;;;;10.91;100.00;99877.66;4433795;32;34760;-79
2022/10/03 06:00:47;;;;;;;6.55;2.17;;;;;;;10.66;100.00;99874.34;4421097;32;35808;-80
2022/10/03 06:03:51;;;;;;;5.70;2.40;;;;;;;10.83;100.00;99883.88;4433761;32;34128;-80
2022/10/03 06:06:50;;;;;;;5.35;2.50;;;;;;;10.84;100.00;99888.22;4434019;32;33454;-80
2022/10/03 06:09:39;;;;;;;6.30;2.22;;;;;;;11.37;100.00;99884.84;4431354;32;32748;-80
2022/10/03 06:12:28;;;;;;;5.45;2.00;;;;;;;11.30;100.00;99893.53;4434828;32;34668;-80
2022/10/03 06:15:36;;;;;;;8.20;2.20;;;;;;;11.52;100.00;99895.47;4429226;32;34156;-83
2022/10/03 06:18:47;;;;;;;5.85;2.05;;;;;;;11.40;100.00;99920.72;4433495;32;34717;-82
2022/10/03 06:21:39;;;;;;;7.22;2.03;;;;;;;11.77;100.00;99906.97;4435430;32;34275;-83
2022/10/03 06:25:03;;;;;;;6.13;2.03;;;;;;;11.60;100.00;99918.63;4435834;32;33973;-81
2022/10/03 06:28:12;;;;;;;4.83;1.80;;;;;;;11.70;100.00;99930.16;4435818;32;32275;-81
2022/10/03 06:31:20;;;;;;;5.62;1.90;;;;;;;11.75;100.00;99933.91;4432355;32;32861;-81
2022/10/03 06:34:24;;;;;;;6.93;1.85;;;;;;;12.14;100.00;99944.22;4432657;32;34191;-87
2022/10/03 06:37:25;;;;;;;5.95;2.00;;;;;;;11.75;100.00;99933.91;4432215;32;33853;-82
2022/10/03 06:40:33;;;;;;;6.90;1.70;;;;;;;11.77;100.00;99929.72;4431402;32;34149;-83
2022/10/03 06:43:41;;;;;;;6.30;1.55;;;;;;;11.71;100.00;99937.28;4435475;32;34626;-81
2022/10/03 06:46:44;;;;;;;7.47;1.90;;;;;;;12.20;100.00;99931.16;4432859;32;33213;-81
2022/10/03 06:50:09;;;;;;;5.78;1.65;;;;;;;12.24;100.00;99932.16;4433247;32;33801;-82
2022/10/03 06:53:30;;;;;;;5.45;1.62;;;;;;;12.46;100.00;99934.03;4408458;32;32961;-83
2022/10/03 06:56:30;;;;;;;6.22;1.55;;;;;;;12.03;100.00;99943.66;4361528;32;34149;-83
2022/10/03 06:59:43;;;;;;;6.25;1.50;;;;;;;12.15;99.78;99924.69;4431094;32;32999;-80
2022/10/03 07:02:39;;;;;;;6.70;1.67;;;;;;;12.19;99.72;99941.34;4432225;32;34756;-79
2022/10/03 07:06:01;;;;;;;6.43;1.40;;;;;;;12.35;98.50;99934.34;4430700;32;33584;-82
2022/10/03 07:08:58;;;;;;;5.47;1.52;;;;;;;12.33;98.87;99950.31;4430230;32;34552;-84
2022/10/03 07:12:18;;;;;;;6.28;1.62;;;;;;;12.25;97.75;99936.53;4425615;32;33240;-83
2022/10/03 07:15:16;;;;;;;6.87;1.40;;;;;;;12.40;99.16;99925.13;4420796;32;33835;-84
2022/10/03 07:18:22;;;;;;;6.10;1.50;;;;;;;12.50;97.87;99933.09;4416044;32;32508;-84
2022/10/03 07:21:17;;;;;;;5.85;1.50;;;;;;;12.63;97.93;99939.59;4418232;32;33878;-83
2022/10/03 07:24:27;;;;;;;5.97;1.70;;;;;;;12.37;99.29;99929.31;4419798;32;34001;-83
2022/10/03 07:27:38;;;;;;;6.45;1.60;;;;;;;12.56;97.20;99948.31;4420380;32;33563;-85
2022/10/03 07:30:31;;;;;;;6.80;2.03;;;;;;;12.51;98.32;99948.47;4418247;32;33622;-87
2022/10/03 07:33:35;;;;;;;6.95;1.62;;;;;;;12.55;98.77;99937.63;4418394;32;35617;-87
2022/10/03 07:40:08;;;;;;;4.95;1.60;;;;;;;13.03;95.17;99945.91;4421392;32;33810;-86
2022/10/03 07:43:10;;;;;;;6.82;2.05;;;;;;;13.15;94.52;99938.94;4420250;32;34969;-85
2022/10/03 07:46:27;;;;;;;7.93;2.75;;;;;;;13.17;95.71;99947.72;4422833;32;33456;-86
2022/10/03 07:49:36;;;;;;;8.60;3.30;;;;;;;12.89;96.07;99950.69;4422672;32;31951;-84
2022/10/03 07:52:28;;;;;;;9.30;2.42;;;;;;;13.21;94.99;99943.19;4427526;32;33783;-84
2022/10/03 07:55:53;;;;;;;6.12;1.75;;;;;;;13.44;94.16;99955.72;4422539;32;35132;-86
2022/10/03 07:58:52;;;;;;;8.25;1.80;;;;;;;13.16;94.28;99962.59;4418118;32;33617;-88
2022/10/03 08:01:48;;;;;;;5.25;1.58;;;;;;;13.12;95.34;99959.69;4419324;32;32832;-85
2022/10/03 08:05:10;;;;;;;5.22;1.80;;;;;;;13.17;92.59;99980.72;4417649;32;33780;-85
2022/10/03 08:08:04;;;;;;;8.55;2.40;;;;;;;13.22;92.54;99961.31;4415775;32;33683;-85
2022/10/03 08:11:20;;;;;;;5.68;1.67;;;;;;;13.55;89.38;99966.41;4419296;32;34058;-84
2022/10/03 08:14:23;;;;;;;7.43;1.60;;;;;;;13.64;88.84;99970.00;4423117;32;33183;-85
2022/10/03 08:17:31;;;;;;;5.62;1.35;;;;;;;13.32;90.41;99963.81;4412234;32;32096;-87
2022/10/03 08:20:36;;;;;;;7.83;1.90;;;;;;;13.33;87.44;99970.91;4421964;32;33537;-85
2022/10/03 08:23:57;;;;;;;4.50;1.42;;;;;;;13.52;86.83;99961.53;4420810;32;33544;-85
2022/10/03 08:27:02;;;;;;;6.22;1.73;;;;;;;13.79;85.29;99966.75;4421683;32;34189;-84
2022/10/03 08:30:16;;;;;;;5.97;1.25;;;;;;;14.11;83.65;99959.09;4420837;32;33174;-82
2022/10/03 08:33:14;;;;;;;5.80;1.40;;;;;;;13.83;82.04;99973.25;4424672;32;33767;-84
2022/10/03 08:36:13;;;;;;;3.75;1.40;;;;;;;13.95;84.48;99948.59;4423130;32;34215;-87
2022/10/03 08:39:11;;;;;;;6.05;1.60;;;;;;;13.86;79.79;99942.28;4422556;32;33455;-85
2022/10/03 08:42:04;;;;;;;6.85;1.40;;;;;;;14.28;81.83;99956.28;4426675;32;34295;-86
2022/10/03 08:44:56;;;;;;;5.95;1.30;;;;;;;14.39;81.69;99959.53;4422995;32;34135;-83
2022/10/03 08:48:02;;;;;;;5.85;1.70;;;;;;;14.09;81.95;99964.13;4422112;32;34577;-84
2022/10/03 08:51:13;;;;;;;7.25;1.55;;;;;;;14.62;81.01;99952.66;4422117;32;33074;-89
2022/10/03 08:54:13;;;;;;;5.90;1.50;;;;;;;14.34;79.48;99957.75;4413344;32;33176;-85
2022/10/03 08:57:18;;;;;;;5.97;1.50;;;;;;;14.13;79.92;99951.31;4423415;32;35359;-87
2022/10/03 09:00:22;;;;;;;5.05;1.37;;;;;;;14.27;81.62;99962.97;4423054;32;34519;-88
2022/10/03 09:03:33;;;;;;;7.57;1.60;;;;;;;14.05;80.78;99960.41;4423239;32;32914;-84
2022/10/03 09:06:53;;;;;;;5.75;1.60;;;;;;;13.89;82.17;99971.94;4420638;32;33724;-82
2022/10/03 09:10:54;;;;;;;8.73;1.73;;;;;;;14.24;81.80;99991.19;4423512;32;34734;-86
2022/10/03 09:14:02;;;;;;;5.53;1.75;;;;;;;14.73;79.71;99972.41;4376173;32;32331;-82
2022/10/03 09:17:07;;;;;;;6.20;1.65;;;;;;;14.71;80.38;99957.31;4425172;32;32932;-86
2022/10/03 09:20:12;;;;;;;5.85;1.73;;;;;;;14.45;81.80;99962.91;4422588;32;34778;-87
2022/10/03 09:23:01;;;;;;;3.55;1.20;;;;;;;14.58;81.81;99975.72;4422283;32;33806;-84
2022/10/03 09:26:12;;;;;;;6.50;1.65;;;;;;;14.63;78.67;99961.75;4424604;32;34079;-87
2022/10/03 09:29:17;;;;;;;5.90;1.98;;;;;;;14.44;81.72;99969.56;4423906;32;33096;-86
2022/10/03 09:32:41;;;;;;;6.75;1.55;;;;;;;15.02;79.86;99985.41;4423481;32;35308;-88
2022/10/03 09:35:55;;;;;;;5.28;1.67;;;;;;;14.88;80.99;99965.53;4417252;32;34831;-83
2022/10/03 09:38:45;;;;;;;6.53;2.08;;;;;;;14.66;81.46;99993.34;4423800;32;34983;-83
2022/10/03 09:42:01;;;;;;;6.43;1.52;;;;;;;15.35;80.36;99993.03;4418108;32;33575;-88
2022/10/03 09:45:25;;;;;;;6.12;1.92;;;;;;;15.27;76.92;99980.91;4415101;32;32038;-91
2022/10/03 09:48:36;;;;;;;6.37;1.50;;;;;;;14.33;82.04;99985.66;4425838;32;34089;-86
2022/10/03 09:52:01;;;;;;;6.00;1.40;;;;;;;14.32;82.51;99989.56;4426184;32;34287;-87
2022/10/03 09:55:06;;;;;;;5.60;1.40;;;;;;;14.78;80.08;99980.50;4420695;32;34125;-87
2022/10/03 09:58:15;;;;;;;5.10;1.50;;;;;;;14.54;80.72;99994.88;4418974;32;32297;-86
2022/10/03 10:01:22;;;;;;;6.53;1.27;;;;;;;14.25;80.73;100009.31;4413695;32;33992;-83
2022/10/03 10:04:17;;;;;;;4.78;1.30;;;;;;;14.44;81.84;99999.91;4412670;32;33396;-85
2022/10/03 10:08:02;;;;;;;4.07;0.90;;;;;;;14.81;78.96;99996.41;4426033;32;32845;-89
2022/10/03 10:11:03;;;;;;;3.80;1.00;;;;;;;15.69;72.93;100000.31;4418608;32;34487;-84
2022/10/03 10:14:20;;;;;;;3.95;1.00;;;;;;;14.98;74.28;99986.44;4423752;32;34164;-87
2022/10/03 10:17:41;;;;;;;5.05;1.23;;;;;;;14.95;73.70;99987.91;4425499;32;35730;-88
2022/10/03 10:21:10;;;;;;;5.95;1.30;;;;;;;14.54;75.51;99988.53;4432859;32;33287;-90
2022/10/03 10:24:30;;;;;;;3.67;1.00;;;;;;;14.89;76.53;100000.28;4431926;32;32295;-85
2022/10/03 10:28:05;;;;;;;3.60;0.95;;;;;;;14.54;78.19;99991.28;4425837;32;33567;-88
2022/10/03 10:30:58;;;;;;;6.85;1.27;;;;;;;14.18;79.44;100009.03;4431130;32;33794;-88
2022/10/03 10:33:59;;;;;;;5.00;1.20;;;;;;;14.45;78.91;100001.50;4431070;32;33739;-89
2022/10/03 10:37:18;;;;;;;4.80;1.20;;;;;;;14.71;77.90;100004.22;4430156;32;34831;-89
2022/10/03 10:40:49;;;;;;;6.72;1.45;;;;;;;14.83;78.21;99996.88;4429483;32;33627;-86
2022/10/03 10:43:56;;;;;;;2.80;1.10;;;;;;;14.57;79.97;100001.66;4411684;32;34417;-88
2022/10/03 10:47:08;;;;;;;4.05;1.10;;;;;;;14.56;77.74;99992.59;4419066;32;34065;-87
2022/10/03 10:50:10;;;;;;;5.23;1.50;;;;;;;14.66;79.89;100001.62;4416904;32;33806;-87
2022/10/03 10:53:08;;;;;;;4.40;1.10;;;;;;;14.42;82.45;99985.63;4427744;32;33025;-84
2022/10/03 10:56:37;;;;;;;5.93;1.08;;;;;;;14.62;80.52;99993.22;4430338;32;33792;-86
2022/10/03 10:59:33;;;;;;;3.50;1.30;;;;;;;14.60;79.91;99984.47;4428797;32;32835;-89
2022/10/03 11:02:50;;;;;;;4.25;1.00;;;;;;;14.40;80.66;99989.53;4428107;32;34489;-87
2022/10/03 11:05:55;;;;;;;4.80;1.33;;;;;;;14.28;82.54;99994.88;4430817;32;33773;-85
2022/10/03 11:08:44;;;;;;;3.25;0.90;;;;;;;14.52;81.69;99985.31;4432327;32;34622;-85
2022/10/03 11:11:58;;;;;;;2.83;1.15;;;;;;;14.73;79.84;99991.72;4424955;32;33865;-87
2022/10/03 11:15:23;;;;;;;3.65;0.88;;;;;;;14.76;80.39;99979.22;4430824;32;33798;-84
2022/10/03 11:18:38;;;;;;;3.95;0.93;;;;;;;14.70;81.56;99986.88;4429288;32;32772;-87
2022/10/03 11:21:58;;;;;;;5.47;1.05;;;;;;;14.92;80.83;99980.28;4430157;32;33135;-85
2022/10/03 11:25:29;;;;;;;3.85;0.98;;;;;;;15.15;76.94;99974.50;4429624;32;33243;-88
2022/10/03 11:28:50;;;;;;;4.63;1.20;;;;;;;14.58;80.64;99976.53;4387418;32;35366;-86
2022/10/03 11:32:08;;;;;;;2.55;0.75;;;;;;;14.95;78.03;99982.38;4387625;32;33563;-86
2022/10/03 11:35:10;;;;;;;3.08;0.90;;;;;;;15.02;78.24;99976.34;4429691;32;33795;-90
2022/10/03 11:38:18;;;;;;;2.12;0.60;;;;;;;14.53;81.00;99986.91;4430380;32;33289;-87
2022/10/03 11:41:07;;;;;;;3.62;0.68;;;;;;;14.39;79.58;99978.81;4428693;32;33569;-88
2022/10/03 11:44:14;;;;;;;3.33;0.82;;;;;;;14.59;79.27;99980.09;4432339;32;35050;-88
2022/10/03 11:47:19;;;;;;;2.93;0.90;;;;;;;14.70;78.00;99970.31;4421912;32;33249;-83
2022/10/03 11:50:25;;;;;;;4.57;1.40;;;;;;;14.73;76.48;99975.16;4434505;32;32925;-79
2022/10/03 11:53:27;;;;;;;7.00;2.45;;;;;;;14.69;77.73;99971.47;4429015;32;33487;-86
2022/10/03 11:56:25;;;;;;;3.87;1.00;;;;;;;14.88;77.77;99971.03;4429758;32;35087;-87
2022/10/03 11:59:32;;;;;;;5.22;2.10;;;;;;;15.28;75.47;99976.19;4429118;32;33267;-87
2022/10/03 12:02:21;;;;;;;2.75;1.20;;;;;;;15.84;75.87;99967.69;4427066;32;33036;-88
2022/10/03 12:05:27;;;;;;;3.97;1.70;;;;;;;15.94;73.05;99967.28;4429124;32;33481;-87
2022/10/03 12:11:52;;;;;;;3.87;1.60;;;;;;;15.09;77.23;99976.63;4431996;32;34662;-88
2022/10/03 12:14:46;;;;;;;6.07;3.00;;;;;;;15.06;74.54;99977.31;4430555;32;33854;-89
2022/10/03 12:17:35;;;;;;;13.25;8.40;;;;;;;15.00;76.51;99978.63;4421633;32;33636;-90
2022/10/03 12:20:41;;;;;;;10.63;5.53;;;;;;;14.96;76.34;99980.44;4431081;32;33004;-91
2022/10/03 12:23:40;;;;;;;5.15;3.20;;;;;;;14.72;78.12;99978.28;4428881;32;33832;-88
2022/10/03 12:26:52;;;;;;;6.25;2.33;;;;;;;14.10;80.93;99991.34;4432472;32;32987;-89
2022/10/03 12:29:44;;;;;;;3.17;1.08;;;;;;;14.32;78.33;99975.75;4429242;32;34650;-91
2022/10/03 12:33:08;;;;;;;5.15;1.40;;;;;;;14.93;75.57;99961.78;4430968;32;34045;-85
2022/10/03 12:36:08;;;;;;;4.53;1.30;;;;;;;14.71;76.22;99960.09;4419184;32;32642;-87
2022/10/03 12:39:13;;;;;;;3.47;0.93;;;;;;;15.16;75.75;99968.63;4432074;32;32958;-91
2022/10/03 12:42:25;;;;;;;3.67;0.90;;;;;;;15.16;72.53;99965.06;4433304;32;33279;-84
2022/10/03 12:45:26;;;;;;;3.67;0.80;;;;;;;15.24;71.02;99972.50;4431496;32;33987;-91
2022/10/03 12:48:22;;;;;;;2.57;0.90;;;;;;;15.50;68.27;99952.97;4432283;32;34048;-89
2022/10/03 12:51:11;;;;;;;3.50;1.00;;;;;;;15.42;68.74;99960.19;4431007;32;33232;-88
2022/10/03 12:54:23;;;;;;;5.28;1.42;;;;;;;15.72;69.19;99958.19;4432601;32;34711;-89
2022/10/03 12:57:33;;;;;;;3.45;0.95;;;;;;;15.28;68.57;99951.34;4431743;32;34120;-89
2022/10/03 13:00:26;;;;;;;3.35;0.90;;;;;;;15.39;68.59;99947.03;4432067;32;33570;-87
2022/10/03 13:03:31;;;;;;;3.72;1.10;;;;;;;15.27;71.33;99971.81;4432080;32;33274;-88
2022/10/03 13:06:24;;;;;;;5.32;1.40;;;;;;;14.64;85.42;99981.88;4431966;32;34695;-87
2022/10/03 13:09:57;;;;;;;4.77;1.27;;;;;;;13.88;96.89;100000.59;4430259;32;34851;-91
2022/10/03 13:13:12;;;;;;;3.30;1.20;;;;;;;12.73;100.00;100005.31;4432986;32;34398;-86
2022/10/03 13:16:15;;;;;;;3.65;1.30;;;;;;;13.44;100.00;100005.25;4434576;32;34172;-89
2022/10/03 13:19:13;;;;;;;3.03;0.85;;;;;;;13.60;100.00;100004.78;4431859;32;33909;-86
2022/10/03 13:22:26;;;;;;;4.55;1.48;;;;;;;13.79;98.93;99975.00;4430324;32;34249;-84
2022/10/03 13:25:34;;;;;;;4.80;0.95;;;;;;;13.99;94.02;99978.25;4431004;32;33888;-88
2022/10/03 13:28:30;;;;;;;4.00;1.10;;;;;;;14.36;91.95;99949.16;4434579;32;33952;-90
2022/10/03 13:31:22;;;;;;;4.68;1.45;;;;;;;14.19;93.71;99958.28;4432198;32;34221;-89
2022/10/03 13:34:17;;;;;;;4.22;1.35;;;;;;;14.69;92.23;99965.16;4432427;32;35084;-88
2022/10/03 13:37:32;;;;;;;3.25;1.10;;;;;;;14.43;88.01;99987.22;4433970;32;32875;-87
2022/10/03 13:40:19;;;;;;;2.10;0.80;;;;;;;14.58;84.67;99970.22;4425182;32;32765;-82
2022/10/03 13:43:12;;;;;;;3.10;0.90;;;;;;;14.44;87.13;99966.81;4429564;32;32470;-84
2022/10/03 13:45:59;;;;;;;3.45;1.00;;;;;;;14.44;84.25;99977.84;4431525;32;34271;-87
2022/10/03 13:48:55;;;;;;;3.72;0.90;;;;;;;14.95;81.61;99984.34;4418193;32;33983;-83
2022/10/03 13:51:57;;;;;;;5.62;2.05;;;;;;;14.70;81.22;99970.31;4422083;32;34366;-85
2022/10/03 13:55:05;;;;;;;2.90;1.02;;;;;;;15.71;78.57;99964.09;4421453;32;33788;-85
2022/10/03 13:58:14;;;;;;;3.30;1.00;;;;;;;15.07;80.81;99981.66;4432761;32;33620;-90
2022/10/03 14:01:10;;;;;;;2.25;0.88;;;;;;;14.71;81.45;99955.37;4431993;32;34593;-83
2022/10/03 14:04:21;;;;;;;2.37;1.00;;;;;;;14.82;82.93;99956.63;4431986;32;33978;-87
2022/10/03 14:07:32;;;;;;;2.35;0.73;;;;;;;15.06;81.48;99963.50;4434120;32;33864;-87
2022/10/03 14:10:29;;;;;;;3.87;0.90;;;;;;;14.16;86.22;99964.44;4430934;32;34052;-84
2022/10/03 14:13:42;;;;;;;3.70;1.00;;;;;;;15.39;81.37;99960.03;4429619;32;33381;-83
2022/10/03 14:16:55;;;;;;;3.10;0.70;;;;;;;15.11;81.78;99963.28;4432978;32;33331;-87
2022/10/03 14:20:01;;;;;;;3.03;0.80;;;;;;;14.56;83.54;99962.25;4431309;32;33254;-86
2022/10/03 14:23:01;;;;;;;2.47;0.90;;;;;;;14.96;83.40;99961.91;4433872;32;34182;-86
2022/10/03 14:25:59;;;;;;;3.70;0.82;;;;;;;14.60;81.50;99973.44;4432307;32;34297;-84
2022/10/03 14:28:50;;;;;;;2.75;0.90;;;;;;;14.58;80.21;99951.72;4430962;32;33463;-85
2022/10/03 14:32:05;;;;;;;2.50;0.97;;;;;;;14.58;79.53;99972.97;4430466;32;34224;-83
2022/10/03 14:35:37;;;;;;;3.23;0.90;;;;;;;15.44;74.95;99976.41;4431335;32;33681;-87
2022/10/03 14:39:02;;;;;;;3.05;0.85;;;;;;;14.65;75.88;99978.75;4427013;32;32240;-85
2022/10/03 14:41:51;;;;;;;1.98;0.77;;;;;;;14.65;76.21;99975.19;4431278;32;32856;-86